createdAt,value
2023-08-05T00:00:17.191Z,4.50
2023-08-05T00:03:09.607Z,3.10
2023-08-05T00:05:41.977Z,2.50
2023-08-05T00:08:14.439Z,2.80
2023-08-05T00:10:49.909Z,3.10
2023-08-05T00:13:22.299Z,3.30
2023-08-05T00:15:54.717Z,3.40
2023-08-05T00:18:27.142Z,3.90
2023-08-05T00:20:59.451Z,3.60
2023-08-05T00:23:32.188Z,3.20
2023-08-05T00:26:04.370Z,3.80
2023-08-05T00:28:36.769Z,4.00
2023-08-05T00:31:12.325Z,4.60
2023-08-05T00:36:15.361Z,5.10
2023-08-05T00:38:47.646Z,6.30
2023-08-05T00:41:20.146Z,5.50
2023-08-05T00:43:52.432Z,4.80
2023-08-05T00:46:24.764Z,4.80
2023-08-05T00:48:57.008Z,4.30
2023-08-05T00:51:30.073Z,4.30
2023-08-05T00:54:02.625Z,4.90
2023-08-05T00:56:35.627Z,5.40
2023-08-05T00:59:08.234Z,4.80
2023-08-05T01:01:40.700Z,4.30
2023-08-05T01:04:12.951Z,4.50
2023-08-05T01:06:46.808Z,5.00
2023-08-05T01:09:19.431Z,5.30
2023-08-05T01:11:51.810Z,5.40
2023-08-05T01:14:24.069Z,5.60
2023-08-05T01:16:56.571Z,4.80
2023-08-05T01:19:30.674Z,6.80
2023-08-05T01:22:13.376Z,4.80
2023-08-05T01:24:59.641Z,4.40
2023-08-05T01:27:34.635Z,6.40
2023-08-05T01:30:08.377Z,6.20
2023-08-05T01:32:43.068Z,6.20
2023-08-05T01:35:15.871Z,6.00
2023-08-05T01:37:48.736Z,6.40
2023-08-05T01:40:20.915Z,6.90
2023-08-05T01:42:53.297Z,7.60
2023-08-05T01:45:25.489Z,8.20
2023-08-05T01:47:57.822Z,6.90
2023-08-05T01:50:30.086Z,8.60
2023-08-05T01:53:02.500Z,7.40
2023-08-05T01:55:35.013Z,6.90
2023-08-05T01:58:07.328Z,8.10
2023-08-05T02:00:39.586Z,7.40
2023-08-05T02:03:12.202Z,8.90
2023-08-05T02:05:44.509Z,9.70
2023-08-05T02:08:16.836Z,8.70
2023-08-05T02:10:49.360Z,8.50
2023-08-05T02:13:21.540Z,9.70
2023-08-05T02:15:53.852Z,11.00
2023-08-05T02:18:26.171Z,8.70
2023-08-05T02:20:58.221Z,9.40
2023-08-05T02:23:30.556Z,10.00
2023-08-05T02:26:03.744Z,10.90
2023-08-05T02:28:36.138Z,12.60
2023-08-05T02:31:08.458Z,9.30
2023-08-05T02:33:40.733Z,12.70
2023-08-05T02:36:13.343Z,10.10
2023-08-05T02:38:45.837Z,11.40
2023-08-05T02:41:18.160Z,11.90
2023-08-05T02:43:50.533Z,13.10
2023-08-05T02:46:23.038Z,11.40
2023-08-05T02:48:55.413Z,11.40
2023-08-05T02:51:27.841Z,10.10
2023-08-05T02:54:00.262Z,12.90
2023-08-05T02:56:35.071Z,11.70
2023-08-05T02:59:07.422Z,11.90
2023-08-05T03:01:39.722Z,11.40
2023-08-05T03:04:11.966Z,9.90
2023-08-05T03:06:44.698Z,11.40
2023-08-05T03:09:17.049Z,12.70
2023-08-05T03:11:50.556Z,12.60
2023-08-05T03:14:22.836Z,14.40
2023-08-05T03:16:55.303Z,11.50
2023-08-05T03:19:27.566Z,11.60
2023-08-05T03:21:59.678Z,11.70
2023-08-05T03:24:32.035Z,11.80
2023-08-05T03:27:04.386Z,11.80
2023-08-05T03:29:36.823Z,11.10
2023-08-05T03:32:09.660Z,11.40
2023-08-05T03:34:41.791Z,11.70
2023-08-05T03:37:14.051Z,11.60
2023-08-05T03:39:46.408Z,11.10
2023-08-05T03:42:18.639Z,14.30
2023-08-05T03:44:50.845Z,12.20
2023-08-05T03:47:23.073Z,10.90
2023-08-05T03:49:55.684Z,11.60
2023-08-05T03:52:28.262Z,10.40
2023-08-05T03:55:00.868Z,12.30
2023-08-05T03:57:33.270Z,10.10
2023-08-05T04:00:06.014Z,9.80
2023-08-05T04:02:38.467Z,13.00
2023-08-05T04:05:11.890Z,10.40
2023-08-05T04:07:44.271Z,11.20
2023-08-05T04:10:20.922Z,11.20
2023-08-05T04:12:53.388Z,9.70
2023-08-05T04:15:29.227Z,12.00
2023-08-05T04:18:01.584Z,9.40
2023-08-05T04:20:35.737Z,13.70
2023-08-05T04:23:10.330Z,10.30
2023-08-05T04:25:46.282Z,12.30
2023-08-05T04:28:18.658Z,11.30
2023-08-05T04:30:50.989Z,9.00
2023-08-05T04:33:24.015Z,9.00
2023-08-05T04:35:56.256Z,8.70
2023-08-05T04:38:28.552Z,8.00
2023-08-05T04:41:01.616Z,7.80
2023-08-05T04:43:33.959Z,8.70
2023-08-05T04:46:06.379Z,7.10
2023-08-05T04:48:38.633Z,7.10
2023-08-05T04:51:11.050Z,7.90
2023-08-05T04:53:43.293Z,7.40
2023-08-05T04:56:15.524Z,6.90
2023-08-05T04:58:47.932Z,7.60
2023-08-05T05:01:20.571Z,8.80
2023-08-05T05:03:53.170Z,7.10
2023-08-05T05:06:25.535Z,6.10
2023-08-05T05:08:57.868Z,9.80
2023-08-05T05:11:30.033Z,6.90
2023-08-05T05:14:02.419Z,5.70
2023-08-05T05:16:34.682Z,6.80
2023-08-05T05:19:06.981Z,7.80
2023-08-05T05:21:39.344Z,5.80
2023-08-05T05:24:11.569Z,6.70
2023-08-05T05:26:44.047Z,6.30
2023-08-05T05:29:16.383Z,5.00
2023-08-05T05:31:48.660Z,6.70
2023-08-05T05:34:20.945Z,4.70
2023-08-05T05:36:53.531Z,5.70
2023-08-05T05:39:25.862Z,6.20
2023-08-05T05:41:58.289Z,5.40
2023-08-05T05:44:32.333Z,5.40
2023-08-05T05:47:04.716Z,4.60
2023-08-05T05:49:37.236Z,5.10
2023-08-05T05:52:12.746Z,4.30
2023-08-05T05:57:15.744Z,3.00
2023-08-05T05:59:48.281Z,5.40
2023-08-05T06:02:20.511Z,4.10
2023-08-05T06:04:53.210Z,4.60
2023-08-05T06:07:25.577Z,4.10
2023-08-05T06:09:58.267Z,4.20
2023-08-05T06:12:34.200Z,3.90
2023-08-05T06:15:08.885Z,4.60
2023-08-05T06:17:41.102Z,3.70
2023-08-05T06:20:15.502Z,4.30
2023-08-05T06:22:47.869Z,3.20
2023-08-05T06:25:20.345Z,4.40
2023-08-05T06:27:52.666Z,3.60
2023-08-05T06:30:25.078Z,3.00
2023-08-05T06:32:57.284Z,3.60
2023-08-05T06:35:29.953Z,3.50
2023-08-05T06:38:02.272Z,3.30
2023-08-05T06:40:34.364Z,3.50
2023-08-05T06:43:06.770Z,3.20
2023-08-05T06:45:39.222Z,2.80
2023-08-05T06:48:11.716Z,3.70
2023-08-05T06:50:44.428Z,3.80
2023-08-05T06:53:16.637Z,3.30
2023-08-05T06:55:49.187Z,3.40
2023-08-05T06:58:21.296Z,2.90
2023-08-05T07:00:57.429Z,2.90
2023-08-05T07:03:30.280Z,3.70
2023-08-05T07:06:02.708Z,2.80
2023-08-05T07:08:34.860Z,3.40
2023-08-05T07:11:07.209Z,2.60
2023-08-05T07:13:39.616Z,4.70
2023-08-05T07:16:12.147Z,3.20
2023-08-05T07:18:44.470Z,2.80
2023-08-05T07:21:17.395Z,3.30
2023-08-05T07:23:51.939Z,4.20
2023-08-05T07:26:24.166Z,2.30
2023-08-05T07:28:56.363Z,3.00
2023-08-05T07:31:28.833Z,2.50
2023-08-05T07:34:01.489Z,2.90
2023-08-05T07:36:33.933Z,3.20
2023-08-05T07:39:09.669Z,2.70
2023-08-05T07:41:42.003Z,3.20
2023-08-05T07:44:14.338Z,3.60
2023-08-05T07:46:48.682Z,2.50
2023-08-05T07:49:24.290Z,2.60
2023-08-05T07:51:56.940Z,2.80
2023-08-05T07:54:29.195Z,3.00
2023-08-05T07:57:01.684Z,4.50
2023-08-05T07:59:35.348Z,3.10
2023-08-05T08:02:11.846Z,3.20
2023-08-05T08:04:45.360Z,2.80
2023-08-05T08:07:17.619Z,2.80
2023-08-05T08:09:49.989Z,3.20
2023-08-05T08:12:22.251Z,3.80
2023-08-05T08:14:54.595Z,3.30
2023-08-05T08:17:27.536Z,2.90
2023-08-05T08:19:59.981Z,3.60
2023-08-05T08:22:32.167Z,2.80
2023-08-05T08:25:05.087Z,4.50
2023-08-05T08:27:37.504Z,3.80
2023-08-05T08:30:12.706Z,2.60
2023-08-05T08:32:45.020Z,2.70
2023-08-05T08:35:17.484Z,2.90
2023-08-05T08:37:49.704Z,4.00
2023-08-05T08:40:22.312Z,3.50
2023-08-05T08:42:56.525Z,3.10
2023-08-05T08:45:34.584Z,4.20
2023-08-05T08:48:10.765Z,3.10
2023-08-05T08:50:44.362Z,2.80
2023-08-05T08:53:17.469Z,3.80
2023-08-05T08:55:50.777Z,2.70
2023-08-05T08:58:22.953Z,3.40
2023-08-05T09:00:55.856Z,2.90
2023-08-05T09:03:29.705Z,3.40
2023-08-05T09:06:02.289Z,2.50
2023-08-05T09:08:35.852Z,3.30
2023-08-05T09:11:08.222Z,3.60
2023-08-05T09:13:42.264Z,2.60
2023-08-05T09:16:18.249Z,3.10
2023-08-05T09:18:58.254Z,3.20
2023-08-05T09:21:32.282Z,2.60
2023-08-05T09:24:04.759Z,3.70
2023-08-05T09:26:37.558Z,3.00
2023-08-05T09:29:10.241Z,4.80
2023-08-05T09:31:42.772Z,3.70
2023-08-05T09:34:16.294Z,3.00
2023-08-05T09:36:49.617Z,2.40
2023-08-05T09:39:23.401Z,2.80
2023-08-05T09:41:57.276Z,2.60
2023-08-05T09:44:30.033Z,3.90
2023-08-05T09:47:05.737Z,2.50
2023-08-05T09:49:40.075Z,4.00
2023-08-05T09:52:13.375Z,3.00
2023-08-05T09:54:48.709Z,3.70
2023-08-05T09:57:22.356Z,2.50
2023-08-05T09:59:55.255Z,2.70
2023-08-05T10:02:28.529Z,2.90
2023-08-05T10:05:02.712Z,2.10
2023-08-05T10:07:34.896Z,2.40
2023-08-05T10:10:09.446Z,3.40
2023-08-05T10:15:31.207Z,4.00
2023-08-05T10:18:03.698Z,2.50
2023-08-05T10:20:40.381Z,2.60
2023-08-05T10:23:15.483Z,4.50
2023-08-05T10:25:49.474Z,3.80
2023-08-05T10:28:43.869Z,3.80
2023-08-05T10:31:30.408Z,3.10
2023-08-05T10:34:20.611Z,3.00
2023-08-05T10:36:59.201Z,2.50
2023-08-05T10:39:47.194Z,2.80
2023-08-05T10:42:32.800Z,4.10
2023-08-05T10:45:08.404Z,1.90
2023-08-05T10:47:50.192Z,2.10
2023-08-05T10:50:22.986Z,2.30
2023-08-05T10:52:55.683Z,3.30
2023-08-05T10:55:29.717Z,2.30
2023-08-05T10:58:02.514Z,2.60
2023-08-05T11:00:42.487Z,2.60
2023-08-05T11:03:32.631Z,3.50
2023-08-05T11:06:07.090Z,3.10
2023-08-05T11:08:40.725Z,2.80
2023-08-05T11:11:15.291Z,2.80
2023-08-05T11:13:48.757Z,1.90
2023-08-05T11:16:21.889Z,2.60
2023-08-05T11:19:01.639Z,2.70
2023-08-05T11:21:33.988Z,1.20
2023-08-05T11:24:07.318Z,1.60
2023-08-05T11:26:39.553Z,2.00
2023-08-05T11:29:11.983Z,2.50
2023-08-05T11:31:53.971Z,2.50
2023-08-05T11:34:26.974Z,3.30
2023-08-05T11:36:59.841Z,2.10
2023-08-05T11:39:32.435Z,1.20
2023-08-05T11:42:05.359Z,2.80
2023-08-05T11:44:37.732Z,2.40
2023-08-05T11:47:10.231Z,2.40
2023-08-05T11:49:52.457Z,2.10
2023-08-05T11:52:24.766Z,1.90
2023-08-05T11:55:05.823Z,3.20
2023-08-05T11:57:38.180Z,1.60
2023-08-05T12:00:13.756Z,1.20
2023-08-05T12:02:46.208Z,1.20
2023-08-05T12:05:21.996Z,1.50
2023-08-05T12:07:54.265Z,1.80
2023-08-05T12:10:28.514Z,1.80
2023-08-05T12:13:03.177Z,2.30
2023-08-05T12:15:35.711Z,1.10
2023-08-05T12:18:09.438Z,1.60
2023-08-05T12:20:41.878Z,1.50
2023-08-05T12:23:14.182Z,1.70
2023-08-05T12:25:46.595Z,1.80
2023-08-05T12:28:19.425Z,1.50
2023-08-05T12:30:51.757Z,1.80
2023-08-05T12:33:24.070Z,1.80
2023-08-05T12:35:56.286Z,1.50
2023-08-05T12:38:28.959Z,1.40
2023-08-05T12:41:01.233Z,2.00
2023-08-05T12:43:33.584Z,1.60
2023-08-05T12:46:05.866Z,2.00
2023-08-05T12:48:38.275Z,1.90
2023-08-05T12:51:10.614Z,2.40
2023-08-05T12:53:43.060Z,1.10
2023-08-05T12:56:15.799Z,2.10
2023-08-05T12:58:48.114Z,2.00
2023-08-05T13:01:20.396Z,2.20
2023-08-05T13:03:52.689Z,1.80
2023-08-05T13:06:25.416Z,1.40
2023-08-05T13:08:57.727Z,1.10
2023-08-05T13:11:30.002Z,2.60
2023-08-05T13:14:02.183Z,1.90
2023-08-05T13:16:34.443Z,2.20
2023-08-05T13:19:08.036Z,2.20
2023-08-05T13:21:40.655Z,1.10
2023-08-05T13:24:13.021Z,1.70
2023-08-05T13:26:45.426Z,1.80
2023-08-05T13:29:17.983Z,1.50
2023-08-05T13:31:50.946Z,1.70
2023-08-05T13:34:23.998Z,2.70
2023-08-05T13:36:56.386Z,1.50
2023-08-05T13:39:28.592Z,1.90
2023-08-05T13:42:01.652Z,2.00
2023-08-05T13:44:34.280Z,3.00
2023-08-05T13:47:06.667Z,2.00
2023-08-05T13:49:39.037Z,1.90
2023-08-05T13:52:11.697Z,3.20
2023-08-05T13:54:44.037Z,2.60
2023-08-05T13:57:16.356Z,2.60
2023-08-05T13:59:48.734Z,3.10
2023-08-05T14:02:21.742Z,3.40
2023-08-05T14:04:54.100Z,2.80
2023-08-05T14:07:26.622Z,2.20
2023-08-05T14:10:01.008Z,2.60
2023-08-05T14:12:33.318Z,3.10
2023-08-05T14:15:06.792Z,3.00
2023-08-05T14:17:39.225Z,3.00
2023-08-05T14:20:13.078Z,3.20
2023-08-05T14:22:45.380Z,3.20
2023-08-05T14:25:17.908Z,2.90
2023-08-05T14:27:51.348Z,3.70
2023-08-05T14:30:30.814Z,5.00
2023-08-05T14:33:03.808Z,3.40
2023-08-05T14:35:37.189Z,3.40
2023-08-05T14:38:09.332Z,3.40
2023-08-05T14:40:41.627Z,3.10
2023-08-05T14:43:13.868Z,3.20
2023-08-05T14:45:46.204Z,3.80
2023-08-05T14:48:19.157Z,3.50
2023-08-05T14:50:51.287Z,3.80
2023-08-05T14:53:23.577Z,4.10
2023-08-05T14:56:00.696Z,4.20
2023-08-05T14:58:33.005Z,3.00
2023-08-05T15:01:17.712Z,2.80
2023-08-05T15:03:51.522Z,2.10
2023-08-05T15:06:24.523Z,3.80
2023-08-05T15:08:57.113Z,3.70
2023-08-05T15:11:29.588Z,3.00
2023-08-05T15:14:01.940Z,3.40
2023-08-05T15:16:35.076Z,4.10
2023-08-05T15:19:07.616Z,3.20
2023-08-05T15:21:39.985Z,3.20
2023-08-05T15:24:12.309Z,3.10
2023-08-05T15:26:44.534Z,3.10
2023-08-05T15:29:19.150Z,3.10
2023-08-05T15:31:51.433Z,3.80
2023-08-05T15:34:23.736Z,4.00
2023-08-05T15:36:57.172Z,3.90
2023-08-05T15:39:32.005Z,4.10
2023-08-05T15:42:05.034Z,4.00
2023-08-05T15:44:40.667Z,4.30
2023-08-05T15:47:12.807Z,4.50
2023-08-05T15:49:45.318Z,4.00
2023-08-05T15:52:17.811Z,3.40
2023-08-05T15:54:52.130Z,3.20
2023-08-05T15:57:24.405Z,5.20
2023-08-05T15:59:57.008Z,4.90
2023-08-05T16:02:29.360Z,3.80
2023-08-05T16:05:01.887Z,3.80
2023-08-05T16:07:37.154Z,3.40
2023-08-05T16:10:10.898Z,4.10
2023-08-05T16:12:43.211Z,3.90
2023-08-05T16:15:16.027Z,5.80
2023-08-05T16:17:48.362Z,3.70
2023-08-05T16:20:20.864Z,3.30
2023-08-05T16:22:54.892Z,4.70
2023-08-05T16:25:27.614Z,4.60
2023-08-05T16:27:59.714Z,2.70
2023-08-05T16:30:32.074Z,4.40
2023-08-05T16:33:04.521Z,3.20
2023-08-05T16:35:36.904Z,2.80
2023-08-05T16:38:10.124Z,5.20
2023-08-05T16:40:42.321Z,4.60
2023-08-05T16:43:14.733Z,3.90
2023-08-05T16:45:48.910Z,3.70
2023-08-05T16:48:21.257Z,4.10
2023-08-05T16:50:53.510Z,4.20
2023-08-05T16:53:25.649Z,2.50
2023-08-05T16:55:57.869Z,4.40
2023-08-05T16:58:30.210Z,3.80
2023-08-05T17:01:02.576Z,4.00
2023-08-05T17:03:34.798Z,3.30
2023-08-05T17:06:07.236Z,3.50
2023-08-05T17:08:40.462Z,3.80
2023-08-05T17:11:12.602Z,3.60
2023-08-05T17:13:44.796Z,4.60
2023-08-05T17:16:17.003Z,4.00
2023-08-05T17:18:49.057Z,4.90
2023-08-05T17:21:21.323Z,6.10
2023-08-05T17:23:53.795Z,3.80
2023-08-05T17:26:25.964Z,3.90
2023-08-05T17:28:58.435Z,4.00
2023-08-05T17:31:30.855Z,4.30
2023-08-05T17:34:03.233Z,3.70
2023-08-05T17:36:35.457Z,5.20
2023-08-05T17:39:07.851Z,3.20
2023-08-05T17:41:40.089Z,5.50
2023-08-05T17:44:12.647Z,3.60
2023-08-05T17:46:45.286Z,5.80
2023-08-05T17:49:17.508Z,4.80
2023-08-05T17:51:49.888Z,3.90
2023-08-05T17:54:22.432Z,5.50
2023-08-05T17:56:54.856Z,5.30
2023-08-05T17:59:27.499Z,5.00
2023-08-05T18:01:59.827Z,6.80
2023-08-05T18:04:32.129Z,4.30
2023-08-05T18:07:04.565Z,5.80
2023-08-05T18:09:36.773Z,5.00
2023-08-05T18:12:11.009Z,6.00
2023-08-05T18:14:46.263Z,6.60
2023-08-05T18:17:18.675Z,5.40
2023-08-05T18:19:52.281Z,4.60
2023-08-05T18:22:24.616Z,8.00
2023-08-05T18:24:56.915Z,5.20
2023-08-05T18:27:29.415Z,7.00
2023-08-05T18:30:01.756Z,5.00
2023-08-05T18:32:34.251Z,6.10
2023-08-05T18:35:08.586Z,6.10
2023-08-05T18:37:41.194Z,5.90
2023-08-05T18:40:14.869Z,5.70
2023-08-05T18:42:47.215Z,8.20
2023-08-05T18:45:19.682Z,5.70
2023-08-05T18:47:51.876Z,5.30
2023-08-05T18:50:24.301Z,4.80
2023-08-05T18:52:56.634Z,6.40
2023-08-05T18:55:29.029Z,5.80
2023-08-05T18:58:01.240Z,5.00
2023-08-05T19:00:33.630Z,5.40
2023-08-05T19:03:06.134Z,5.40
2023-08-05T19:05:38.737Z,6.30
2023-08-05T19:08:11.228Z,6.60
2023-08-05T19:10:43.528Z,4.10
2023-08-05T19:13:15.810Z,5.30
2023-08-05T19:15:48.113Z,7.30
2023-08-05T19:18:20.419Z,5.40
2023-08-05T19:20:52.696Z,5.40
2023-08-05T19:23:24.962Z,6.20
2023-08-05T19:26:02.752Z,4.80
2023-08-05T19:28:35.688Z,4.80
2023-08-05T19:31:11.035Z,5.90
2023-08-05T19:33:43.178Z,5.90
2023-08-05T19:36:16.731Z,5.60
2023-08-05T19:38:51.427Z,5.30
2023-08-05T19:41:23.704Z,6.30
2023-08-05T19:43:56.013Z,5.20
2023-08-05T19:46:28.800Z,5.70
2023-08-05T19:49:01.212Z,5.50
2023-08-05T19:51:33.538Z,6.00
2023-08-05T19:54:06.568Z,4.80
2023-08-05T19:56:38.646Z,4.40
2023-08-05T19:59:10.922Z,8.40
2023-08-05T20:01:43.130Z,7.50
2023-08-05T20:04:15.241Z,5.20
2023-08-05T20:06:47.462Z,6.10
2023-08-05T20:09:19.685Z,6.30
2023-08-05T20:11:53.341Z,7.50
2023-08-05T20:14:25.909Z,7.10
2023-08-05T20:16:58.357Z,4.90
2023-08-05T20:19:30.855Z,5.30
2023-08-05T20:22:03.090Z,6.70
2023-08-05T20:24:35.433Z,6.30
2023-08-05T20:27:08.900Z,4.30
2023-08-05T20:29:41.329Z,6.20
2023-08-05T20:32:13.749Z,6.50
2023-08-05T20:34:49.986Z,5.60
2023-08-05T20:37:23.215Z,5.50
2023-08-05T20:39:56.271Z,4.80
2023-08-05T20:42:28.702Z,4.80
2023-08-05T20:45:00.945Z,5.00
2023-08-05T20:47:33.307Z,5.00
2023-08-05T20:50:06.371Z,5.60
2023-08-05T20:52:38.973Z,5.00
2023-08-05T20:55:11.669Z,4.80
2023-08-05T20:57:46.313Z,4.50
2023-08-05T21:00:19.089Z,4.20
2023-08-05T21:02:51.453Z,5.20
2023-08-05T21:05:23.722Z,4.00
2023-08-05T21:07:55.911Z,5.00
2023-08-05T21:10:28.126Z,4.70
2023-08-05T21:13:00.447Z,4.90
2023-08-05T21:15:32.861Z,4.40
2023-08-05T21:18:05.365Z,4.30
2023-08-05T21:20:37.688Z,4.50
2023-08-05T21:23:09.996Z,5.70
2023-08-05T21:25:42.175Z,5.30
2023-08-05T21:28:15.575Z,4.60
2023-08-05T21:30:51.783Z,6.30
2023-08-05T21:33:24.152Z,4.60
2023-08-05T21:35:56.521Z,4.40
2023-08-05T21:38:29.162Z,4.90
2023-08-05T21:41:01.452Z,5.50
2023-08-05T21:43:33.846Z,4.30
2023-08-05T21:46:06.421Z,5.90
2023-08-05T21:48:39.371Z,4.40
2023-08-05T21:51:11.907Z,4.10
2023-08-05T21:53:44.323Z,6.20
2023-08-05T21:56:16.706Z,4.60
2023-08-05T21:58:49.041Z,4.30
2023-08-05T22:01:21.491Z,5.70
2023-08-05T22:03:53.908Z,4.20
2023-08-05T22:06:26.383Z,7.10
2023-08-05T22:08:59.921Z,4.30
2023-08-05T22:11:32.354Z,5.00
2023-08-05T22:14:04.597Z,5.80
2023-08-05T22:16:36.938Z,5.70
2023-08-05T22:19:09.179Z,6.00
2023-08-05T22:21:41.468Z,5.80
2023-08-05T22:24:16.262Z,5.60
2023-08-05T22:26:53.967Z,6.80
2023-08-05T22:31:57.087Z,5.80
2023-08-05T22:34:29.351Z,6.10
2023-08-05T22:37:01.885Z,5.60
2023-08-05T22:39:34.398Z,7.50
2023-08-05T22:42:07.593Z,6.50
2023-08-05T22:44:39.877Z,6.00
2023-08-05T22:47:12.228Z,5.90
2023-08-05T22:49:44.463Z,6.70
2023-08-05T22:52:16.863Z,6.10
2023-08-05T22:54:49.381Z,5.80
2023-08-05T22:57:22.443Z,6.50
2023-08-05T22:59:56.376Z,8.50
2023-08-05T23:02:28.895Z,6.30
2023-08-05T23:05:02.768Z,6.10
2023-08-05T23:07:35.005Z,6.20
2023-08-05T23:10:07.830Z,6.10
2023-08-05T23:12:40.280Z,5.90
2023-08-05T23:15:13.743Z,5.30
2023-08-05T23:17:46.631Z,8.00
2023-08-05T23:20:19.055Z,8.90
2023-08-05T23:22:51.245Z,6.30
2023-08-05T23:25:23.655Z,6.70
2023-08-05T23:27:56.007Z,6.70
2023-08-05T23:30:28.261Z,7.20
2023-08-05T23:33:01.359Z,6.20
2023-08-05T23:35:33.551Z,6.30
2023-08-05T23:38:05.945Z,7.20
2023-08-05T23:40:38.187Z,10.30
2023-08-05T23:43:10.427Z,6.80
2023-08-05T23:45:44.693Z,7.00
2023-08-05T23:48:17.901Z,7.10
2023-08-05T23:50:50.269Z,7.10
2023-08-05T23:53:22.599Z,6.60
2023-08-05T23:55:55.297Z,6.70
2023-08-05T23:58:27.625Z,6.30
